sensor_id;sensor_type;location;lat;lon;timestamp;P1;durP1;ratioP1;P2;durP2;ratioP2
44328;SDS011;30039;51.462;6.892;2023-07-24T00:02:03;2.60;;;1.77;;
44328;SDS011;30039;51.462;6.892;2023-07-24T00:04:49;2.72;;;2.00;;
44328;SDS011;30039;51.462;6.892;2023-07-24T00:07:35;3.45;;;2.20;;
44328;SDS011;30039;51.462;6.892;2023-07-24T00:10:20;5.03;;;2.38;;
44328;SDS011;30039;51.462;6.892;2023-07-24T00:13:06;3.92;;;2.08;;
44328;SDS011;30039;51.462;6.892;2023-07-24T00:15:52;4.30;;;2.38;;
44328;SDS011;30039;51.462;6.892;2023-07-24T00:18:38;3.75;;;2.20;;
44328;SDS011;30039;51.462;6.892;2023-07-24T00:21:23;4.38;;;2.30;;
44328;SDS011;30039;51.462;6.892;2023-07-24T00:24:09;3.40;;;2.33;;
44328;SDS011;30039;51.462;6.892;2023-07-24T00:26:54;3.03;;;1.90;;
44328;SDS011;30039;51.462;6.892;2023-07-24T00:29:40;5.82;;;2.22;;
44328;SDS011;30039;51.462;6.892;2023-07-24T00:32:26;5.78;;;2.50;;
44328;SDS011;30039;51.462;6.892;2023-07-24T00:35:11;5.60;;;2.40;;
44328;SDS011;30039;51.462;6.892;2023-07-24T00:37:57;3.40;;;2.13;;
44328;SDS011;30039;51.462;6.892;2023-07-24T00:40:43;3.42;;;2.03;;
44328;SDS011;30039;51.462;6.892;2023-07-24T00:43:28;3.35;;;1.95;;
44328;SDS011;30039;51.462;6.892;2023-07-24T00:46:14;3.70;;;2.20;;
44328;SDS011;30039;51.462;6.892;2023-07-24T00:49:00;3.88;;;2.17;;
44328;SDS011;30039;51.462;6.892;2023-07-24T00:51:46;5.28;;;2.38;;
44328;SDS011;30039;51.462;6.892;2023-07-24T00:54:32;4.85;;;2.50;;
44328;SDS011;30039;51.462;6.892;2023-07-24T00:57:18;3.83;;;1.98;;
44328;SDS011;30039;51.462;6.892;2023-07-24T01:00:03;3.72;;;2.10;;
44328;SDS011;30039;51.462;6.892;2023-07-24T01:02:49;3.13;;;1.80;;
44328;SDS011;30039;51.462;6.892;2023-07-24T01:05:35;3.95;;;2.58;;
44328;SDS011;30039;51.462;6.892;2023-07-24T01:08:20;3.42;;;2.22;;
44328;SDS011;30039;51.462;6.892;2023-07-24T01:11:11;4.32;;;2.17;;
44328;SDS011;30039;51.462;6.892;2023-07-24T01:14:00;4.05;;;1.90;;
44328;SDS011;30039;51.462;6.892;2023-07-24T01:16:47;4.97;;;2.40;;
44328;SDS011;30039;51.462;6.892;2023-07-24T01:22:45;3.38;;;2.17;;
44328;SDS011;30039;51.462;6.892;2023-07-24T01:28:34;5.35;;;2.45;;
44328;SDS011;30039;51.462;6.892;2023-07-24T01:31:19;3.83;;;2.13;;
44328;SDS011;30039;51.462;6.892;2023-07-24T01:34:05;5.65;;;2.47;;
44328;SDS011;30039;51.462;6.892;2023-07-24T01:36:50;5.25;;;2.30;;
44328;SDS011;30039;51.462;6.892;2023-07-24T01:39:36;5.43;;;2.13;;
44328;SDS011;30039;51.462;6.892;2023-07-24T01:42:23;4.10;;;1.98;;
44328;SDS011;30039;51.462;6.892;2023-07-24T01:45:08;4.72;;;2.50;;
44328;SDS011;30039;51.462;6.892;2023-07-24T01:47:54;3.95;;;2.50;;
44328;SDS011;30039;51.462;6.892;2023-07-24T01:50:40;4.35;;;2.75;;
44328;SDS011;30039;51.462;6.892;2023-07-24T01:53:25;4.25;;;2.05;;
44328;SDS011;30039;51.462;6.892;2023-07-24T01:56:11;8.40;;;2.85;;
44328;SDS011;30039;51.462;6.892;2023-07-24T01:58:56;3.83;;;2.30;;
44328;SDS011;30039;51.462;6.892;2023-07-24T02:01:42;4.85;;;2.53;;
44328;SDS011;30039;51.462;6.892;2023-07-24T02:04:28;4.30;;;2.30;;
44328;SDS011;30039;51.462;6.892;2023-07-24T02:07:13;5.82;;;2.53;;
44328;SDS011;30039;51.462;6.892;2023-07-24T02:09:59;5.15;;;2.33;;
44328;SDS011;30039;51.462;6.892;2023-07-24T02:12:44;4.97;;;2.58;;
44328;SDS011;30039;51.462;6.892;2023-07-24T02:15:30;3.10;;;2.10;;
44328;SDS011;30039;51.462;6.892;2023-07-24T02:18:16;4.82;;;2.53;;
44328;SDS011;30039;51.462;6.892;2023-07-24T02:21:01;5.90;;;2.35;;
44328;SDS011;30039;51.462;6.892;2023-07-24T02:23:47;4.32;;;2.70;;
44328;SDS011;30039;51.462;6.892;2023-07-24T02:26:32;4.55;;;2.55;;
44328;SDS011;30039;51.462;6.892;2023-07-24T02:29:18;4.63;;;2.40;;
44328;SDS011;30039;51.462;6.892;2023-07-24T02:32:04;9.20;;;2.80;;
44328;SDS011;30039;51.462;6.892;2023-07-24T02:34:50;5.45;;;2.50;;
44328;SDS011;30039;51.462;6.892;2023-07-24T02:37:36;4.50;;;2.70;;
44328;SDS011;30039;51.462;6.892;2023-07-24T02:40:21;7.75;;;3.20;;
44328;SDS011;30039;51.462;6.892;2023-07-24T02:43:07;5.05;;;2.50;;
44328;SDS011;30039;51.462;6.892;2023-07-24T02:46:00;5.63;;;3.00;;
44328;SDS011;30039;51.462;6.892;2023-07-24T02:49:02;5.85;;;2.83;;
44328;SDS011;30039;51.462;6.892;2023-07-24T02:51:47;5.95;;;2.50;;
44328;SDS011;30039;51.462;6.892;2023-07-24T02:54:34;7.22;;;2.90;;
44328;SDS011;30039;51.462;6.892;2023-07-24T02:57:26;5.75;;;2.80;;
44328;SDS011;30039;51.462;6.892;2023-07-24T03:00:23;3.05;;;2.47;;
44328;SDS011;30039;51.462;6.892;2023-07-24T03:03:19;4.63;;;2.85;;
44328;SDS011;30039;51.462;6.892;2023-07-24T03:06:04;6.43;;;2.85;;
44328;SDS011;30039;51.462;6.892;2023-07-24T03:08:50;6.82;;;3.08;;
44328;SDS011;30039;51.462;6.892;2023-07-24T03:11:48;4.55;;;3.03;;
44328;SDS011;30039;51.462;6.892;2023-07-24T03:14:40;5.57;;;3.10;;
44328;SDS011;30039;51.462;6.892;2023-07-24T03:17:26;3.70;;;2.35;;
44328;SDS011;30039;51.462;6.892;2023-07-24T03:20:13;5.32;;;3.30;;
44328;SDS011;30039;51.462;6.892;2023-07-24T03:22:59;6.85;;;3.17;;
44328;SDS011;30039;51.462;6.892;2023-07-24T03:25:45;4.63;;;2.55;;
44328;SDS011;30039;51.462;6.892;2023-07-24T03:28:30;5.43;;;2.95;;
44328;SDS011;30039;51.462;6.892;2023-07-24T03:31:16;5.38;;;3.25;;
44328;SDS011;30039;51.462;6.892;2023-07-24T03:34:02;6.22;;;3.22;;
44328;SDS011;30039;51.462;6.892;2023-07-24T03:36:47;7.13;;;3.22;;
44328;SDS011;30039;51.462;6.892;2023-07-24T03:39:33;7.15;;;2.95;;
44328;SDS011;30039;51.462;6.892;2023-07-24T03:42:25;5.70;;;2.97;;
44328;SDS011;30039;51.462;6.892;2023-07-24T03:45:11;6.68;;;3.00;;
44328;SDS011;30039;51.462;6.892;2023-07-24T03:47:57;8.63;;;2.90;;
44328;SDS011;30039;51.462;6.892;2023-07-24T03:50:43;6.00;;;2.90;;
44328;SDS011;30039;51.462;6.892;2023-07-24T03:53:28;5.03;;;3.42;;
44328;SDS011;30039;51.462;6.892;2023-07-24T03:56:14;6.90;;;3.00;;
44328;SDS011;30039;51.462;6.892;2023-07-24T03:59:00;6.20;;;3.20;;
44328;SDS011;30039;51.462;6.892;2023-07-24T04:01:45;5.25;;;3.50;;
44328;SDS011;30039;51.462;6.892;2023-07-24T04:04:31;6.30;;;2.95;;
44328;SDS011;30039;51.462;6.892;2023-07-24T04:07:17;5.57;;;2.85;;
44328;SDS011;30039;51.462;6.892;2023-07-24T04:10:02;6.55;;;3.10;;
44328;SDS011;30039;51.462;6.892;2023-07-24T04:12:48;7.63;;;3.15;;
44328;SDS011;30039;51.462;6.892;2023-07-24T04:15:34;4.18;;;3.10;;
44328;SDS011;30039;51.462;6.892;2023-07-24T04:18:19;7.50;;;3.30;;
44328;SDS011;30039;51.462;6.892;2023-07-24T04:21:05;9.23;;;3.05;;
44328;SDS011;30039;51.462;6.892;2023-07-24T04:23:50;5.00;;;3.00;;
44328;SDS011;30039;51.462;6.892;2023-07-24T04:26:36;6.57;;;3.42;;
44328;SDS011;30039;51.462;6.892;2023-07-24T04:29:22;10.10;;;3.88;;
44328;SDS011;30039;51.462;6.892;2023-07-24T04:32:10;4.25;;;3.05;;
44328;SDS011;30039;51.462;6.892;2023-07-24T04:34:55;6.82;;;3.70;;
44328;SDS011;30039;51.462;6.892;2023-07-24T04:37:41;6.00;;;3.38;;
44328;SDS011;30039;51.462;6.892;2023-07-24T04:40:26;5.03;;;3.30;;
44328;SDS011;30039;51.462;6.892;2023-07-24T04:43:12;10.32;;;3.47;;
44328;SDS011;30039;51.462;6.892;2023-07-24T04:45:58;7.35;;;3.35;;
44328;SDS011;30039;51.462;6.892;2023-07-24T04:48:43;5.07;;;2.88;;
44328;SDS011;30039;51.462;6.892;2023-07-24T04:51:29;5.05;;;3.15;;
44328;SDS011;30039;51.462;6.892;2023-07-24T04:54:17;7.00;;;3.40;;
44328;SDS011;30039;51.462;6.892;2023-07-24T04:57:03;8.30;;;3.15;;
44328;SDS011;30039;51.462;6.892;2023-07-24T04:59:49;5.93;;;3.28;;
44328;SDS011;30039;51.462;6.892;2023-07-24T05:02:35;6.32;;;3.50;;
44328;SDS011;30039;51.462;6.892;2023-07-24T05:05:20;8.55;;;3.53;;
44328;SDS011;30039;51.462;6.892;2023-07-24T05:08:06;5.00;;;2.80;;
44328;SDS011;30039;51.462;6.892;2023-07-24T05:10:58;6.50;;;3.65;;
44328;SDS011;30039;51.462;6.892;2023-07-24T05:13:44;8.25;;;3.72;;
44328;SDS011;30039;51.462;6.892;2023-07-24T05:16:29;7.35;;;3.53;;
44328;SDS011;30039;51.462;6.892;2023-07-24T05:19:16;8.88;;;3.50;;
44328;SDS011;30039;51.462;6.892;2023-07-24T05:22:02;4.75;;;3.10;;
44328;SDS011;30039;51.462;6.892;2023-07-24T05:24:47;7.90;;;3.80;;
44328;SDS011;30039;51.462;6.892;2023-07-24T05:27:33;6.88;;;3.45;;
44328;SDS011;30039;51.462;6.892;2023-07-24T05:30:19;7.10;;;3.33;;
44328;SDS011;30039;51.462;6.892;2023-07-24T05:33:04;4.82;;;3.20;;
44328;SDS011;30039;51.462;6.892;2023-07-24T05:35:50;6.55;;;3.15;;
44328;SDS011;30039;51.462;6.892;2023-07-24T05:38:36;7.65;;;3.60;;
44328;SDS011;30039;51.462;6.892;2023-07-24T05:41:21;6.50;;;3.35;;
44328;SDS011;30039;51.462;6.892;2023-07-24T05:44:07;7.80;;;3.55;;
44328;SDS011;30039;51.462;6.892;2023-07-24T05:46:52;7.72;;;3.65;;
44328;SDS011;30039;51.462;6.892;2023-07-24T05:49:38;9.25;;;3.58;;
44328;SDS011;30039;51.462;6.892;2023-07-24T05:52:24;8.80;;;3.92;;
44328;SDS011;30039;51.462;6.892;2023-07-24T05:55:10;8.50;;;3.35;;
44328;SDS011;30039;51.462;6.892;2023-07-24T05:57:55;9.55;;;3.80;;
44328;SDS011;30039;51.462;6.892;2023-07-24T06:00:41;6.70;;;3.67;;
44328;SDS011;30039;51.462;6.892;2023-07-24T06:03:26;6.72;;;3.72;;
44328;SDS011;30039;51.462;6.892;2023-07-24T06:06:12;8.35;;;4.22;;
44328;SDS011;30039;51.462;6.892;2023-07-24T06:08:58;6.30;;;3.63;;
44328;SDS011;30039;51.462;6.892;2023-07-24T06:11:43;6.22;;;3.75;;
44328;SDS011;30039;51.462;6.892;2023-07-24T06:14:29;7.18;;;3.70;;
44328;SDS011;30039;51.462;6.892;2023-07-24T06:17:15;6.93;;;3.45;;
44328;SDS011;30039;51.462;6.892;2023-07-24T06:20:00;6.32;;;3.30;;
44328;SDS011;30039;51.462;6.892;2023-07-24T06:22:46;7.35;;;4.40;;
44328;SDS011;30039;51.462;6.892;2023-07-24T06:25:31;6.28;;;3.50;;
44328;SDS011;30039;51.462;6.892;2023-07-24T06:28:17;7.90;;;3.83;;
44328;SDS011;30039;51.462;6.892;2023-07-24T06:31:03;5.05;;;3.38;;
44328;SDS011;30039;51.462;6.892;2023-07-24T06:33:48;7.03;;;3.55;;
44328;SDS011;30039;51.462;6.892;2023-07-24T06:36:35;5.45;;;3.80;;
44328;SDS011;30039;51.462;6.892;2023-07-24T06:39:21;5.65;;;3.30;;
44328;SDS011;30039;51.462;6.892;2023-07-24T06:42:06;5.80;;;3.13;;
44328;SDS011;30039;51.462;6.892;2023-07-24T06:44:52;8.85;;;3.78;;
44328;SDS011;30039;51.462;6.892;2023-07-24T06:47:38;8.75;;;3.80;;
44328;SDS011;30039;51.462;6.892;2023-07-24T06:50:23;5.15;;;3.20;;
44328;SDS011;30039;51.462;6.892;2023-07-24T06:53:09;6.40;;;3.35;;
44328;SDS011;30039;51.462;6.892;2023-07-24T06:55:55;5.88;;;3.17;;
44328;SDS011;30039;51.462;6.892;2023-07-24T06:58:40;6.28;;;3.20;;
44328;SDS011;30039;51.462;6.892;2023-07-24T07:01:26;8.30;;;3.50;;
44328;SDS011;30039;51.462;6.892;2023-07-24T07:04:11;7.13;;;3.65;;
44328;SDS011;30039;51.462;6.892;2023-07-24T07:06:57;9.13;;;3.55;;
44328;SDS011;30039;51.462;6.892;2023-07-24T07:09:43;5.32;;;3.22;;
44328;SDS011;30039;51.462;6.892;2023-07-24T07:12:28;4.72;;;2.75;;
44328;SDS011;30039;51.462;6.892;2023-07-24T07:15:14;8.38;;;3.80;;
44328;SDS011;30039;51.462;6.892;2023-07-24T07:18:00;7.30;;;3.40;;
44328;SDS011;30039;51.462;6.892;2023-07-24T07:20:46;6.47;;;3.58;;
44328;SDS011;30039;51.462;6.892;2023-07-24T07:23:32;7.43;;;3.58;;
44328;SDS011;30039;51.462;6.892;2023-07-24T07:26:17;9.35;;;3.50;;
44328;SDS011;30039;51.462;6.892;2023-07-24T07:29:03;5.90;;;3.28;;
44328;SDS011;30039;51.462;6.892;2023-07-24T07:31:49;4.43;;;2.83;;
44328;SDS011;30039;51.462;6.892;2023-07-24T07:34:34;3.92;;;2.70;;
44328;SDS011;30039;51.462;6.892;2023-07-24T07:37:21;4.95;;;3.00;;
44328;SDS011;30039;51.462;6.892;2023-07-24T07:40:07;6.22;;;3.20;;
44328;SDS011;30039;51.462;6.892;2023-07-24T07:42:53;4.13;;;2.85;;
44328;SDS011;30039;51.462;6.892;2023-07-24T07:45:39;4.28;;;2.80;;
44328;SDS011;30039;51.462;6.892;2023-07-24T07:48:24;5.72;;;3.42;;
44328;SDS011;30039;51.462;6.892;2023-07-24T07:51:10;5.95;;;3.13;;
44328;SDS011;30039;51.462;6.892;2023-07-24T07:53:56;8.90;;;4.38;;
44328;SDS011;30039;51.462;6.892;2023-07-24T07:56:41;6.07;;;3.50;;
44328;SDS011;30039;51.462;6.892;2023-07-24T07:59:27;5.00;;;3.22;;
44328;SDS011;30039;51.462;6.892;2023-07-24T08:02:13;6.07;;;3.00;;
44328;SDS011;30039;51.462;6.892;2023-07-24T08:04:59;4.07;;;2.83;;
44328;SDS011;30039;51.462;6.892;2023-07-24T08:07:45;8.13;;;2.85;;
44328;SDS011;30039;51.462;6.892;2023-07-24T08:10:30;6.35;;;2.60;;
44328;SDS011;30039;51.462;6.892;2023-07-24T08:13:16;5.40;;;2.63;;
44328;SDS011;30039;51.462;6.892;2023-07-24T08:16:02;3.35;;;2.50;;
44328;SDS011;30039;51.462;6.892;2023-07-24T08:18:48;3.97;;;2.28;;
44328;SDS011;30039;51.462;6.892;2023-07-24T08:21:34;3.97;;;2.00;;
44328;SDS011;30039;51.462;6.892;2023-07-24T08:24:19;3.60;;;2.33;;
44328;SDS011;30039;51.462;6.892;2023-07-24T08:27:05;3.63;;;1.95;;
44328;SDS011;30039;51.462;6.892;2023-07-24T08:29:51;4.88;;;2.47;;
44328;SDS011;30039;51.462;6.892;2023-07-24T08:32:38;4.68;;;2.17;;
44328;SDS011;30039;51.462;6.892;2023-07-24T08:35:24;4.43;;;1.90;;
44328;SDS011;30039;51.462;6.892;2023-07-24T08:38:10;3.05;;;1.85;;
44328;SDS011;30039;51.462;6.892;2023-07-24T08:41:05;3.55;;;1.95;;
44328;SDS011;30039;51.462;6.892;2023-07-24T08:43:51;2.90;;;1.88;;
44328;SDS011;30039;51.462;6.892;2023-07-24T08:46:37;2.75;;;1.90;;
44328;SDS011;30039;51.462;6.892;2023-07-24T08:49:24;3.13;;;2.20;;
44328;SDS011;30039;51.462;6.892;2023-07-24T08:52:10;3.50;;;2.13;;
44328;SDS011;30039;51.462;6.892;2023-07-24T08:54:56;3.17;;;1.85;;
44328;SDS011;30039;51.462;6.892;2023-07-24T08:57:42;4.72;;;1.92;;
44328;SDS011;30039;51.462;6.892;2023-07-24T09:00:28;3.03;;;1.60;;
44328;SDS011;30039;51.462;6.892;2023-07-24T09:03:14;2.38;;;1.55;;
44328;SDS011;30039;51.462;6.892;2023-07-24T09:06:00;4.85;;;1.60;;
44328;SDS011;30039;51.462;6.892;2023-07-24T09:08:54;2.58;;;1.50;;
44328;SDS011;30039;51.462;6.892;2023-07-24T09:11:47;3.03;;;2.08;;
44328;SDS011;30039;51.462;6.892;2023-07-24T09:14:33;2.30;;;1.53;;
44328;SDS011;30039;51.462;6.892;2023-07-24T09:17:19;3.05;;;1.67;;
44328;SDS011;30039;51.462;6.892;2023-07-24T09:20:05;2.97;;;1.60;;
44328;SDS011;30039;51.462;6.892;2023-07-24T09:22:51;2.05;;;1.30;;
44328;SDS011;30039;51.462;6.892;2023-07-24T09:25:38;3.47;;;1.67;;
44328;SDS011;30039;51.462;6.892;2023-07-24T09:28:24;2.08;;;1.25;;
44328;SDS011;30039;51.462;6.892;2023-07-24T09:31:10;3.20;;;1.80;;
44328;SDS011;30039;51.462;6.892;2023-07-24T09:33:55;2.75;;;1.73;;
44328;SDS011;30039;51.462;6.892;2023-07-24T09:36:41;2.65;;;1.75;;
44328;SDS011;30039;51.462;6.892;2023-07-24T09:39:27;2.63;;;1.88;;
44328;SDS011;30039;51.462;6.892;2023-07-24T09:42:13;4.13;;;1.88;;
44328;SDS011;30039;51.462;6.892;2023-07-24T09:45:00;3.35;;;2.22;;
44328;SDS011;30039;51.462;6.892;2023-07-24T09:47:46;2.72;;;1.80;;
44328;SDS011;30039;51.462;6.892;2023-07-24T09:50:33;3.33;;;1.98;;
44328;SDS011;30039;51.462;6.892;2023-07-24T09:56:17;4.75;;;1.83;;
44328;SDS011;30039;51.462;6.892;2023-07-24T09:59:03;3.80;;;1.98;;
44328;SDS011;30039;51.462;6.892;2023-07-24T10:01:49;5.45;;;2.40;;
44328;SDS011;30039;51.462;6.892;2023-07-24T10:04:36;4.65;;;2.20;;
44328;SDS011;30039;51.462;6.892;2023-07-24T10:07:23;4.40;;;2.20;;
44328;SDS011;30039;51.462;6.892;2023-07-24T10:10:09;4.57;;;2.20;;
44328;SDS011;30039;51.462;6.892;2023-07-24T10:12:55;2.83;;;1.90;;
44328;SDS011;30039;51.462;6.892;2023-07-24T10:15:41;3.30;;;1.90;;
44328;SDS011;30039;51.462;6.892;2023-07-24T10:18:28;2.50;;;2.10;;
44328;SDS011;30039;51.462;6.892;2023-07-24T10:21:15;3.25;;;1.90;;
44328;SDS011;30039;51.462;6.892;2023-07-24T10:24:00;4.22;;;1.92;;
44328;SDS011;30039;51.462;6.892;2023-07-24T10:26:46;3.95;;;2.20;;
44328;SDS011;30039;51.462;6.892;2023-07-24T10:29:35;3.38;;;1.83;;
44328;SDS011;30039;51.462;6.892;2023-07-24T10:32:22;4.55;;;2.15;;
44328;SDS011;30039;51.462;6.892;2023-07-24T10:35:08;3.67;;;2.45;;
44328;SDS011;30039;51.462;6.892;2023-07-24T10:38:01;4.43;;;2.28;;
44328;SDS011;30039;51.462;6.892;2023-07-24T10:40:47;3.50;;;2.10;;
44328;SDS011;30039;51.462;6.892;2023-07-24T10:46:37;5.45;;;2.30;;
44328;SDS011;30039;51.462;6.892;2023-07-24T10:49:23;4.03;;;2.15;;
44328;SDS011;30039;51.462;6.892;2023-07-24T10:52:10;6.78;;;2.67;;
44328;SDS011;30039;51.462;6.892;2023-07-24T10:54:55;3.42;;;2.65;;
44328;SDS011;30039;51.462;6.892;2023-07-24T10:57:41;7.55;;;4.53;;
44328;SDS011;30039;51.462;6.892;2023-07-24T11:00:27;5.10;;;2.90;;
44328;SDS011;30039;51.462;6.892;2023-07-24T11:03:13;4.40;;;2.42;;
44328;SDS011;30039;51.462;6.892;2023-07-24T11:05:59;4.95;;;2.45;;
44328;SDS011;30039;51.462;6.892;2023-07-24T11:08:52;3.40;;;2.40;;
44328;SDS011;30039;51.462;6.892;2023-07-24T11:11:37;4.43;;;2.70;;
44328;SDS011;30039;51.462;6.892;2023-07-24T11:14:23;4.80;;;2.97;;
44328;SDS011;30039;51.462;6.892;2023-07-24T11:17:09;4.63;;;2.40;;
44328;SDS011;30039;51.462;6.892;2023-07-24T11:20:04;4.20;;;2.95;;
44328;SDS011;30039;51.462;6.892;2023-07-24T11:22:50;4.47;;;2.25;;
44328;SDS011;30039;51.462;6.892;2023-07-24T11:25:35;3.17;;;2.22;;
44328;SDS011;30039;51.462;6.892;2023-07-24T11:28:22;6.88;;;2.53;;
44328;SDS011;30039;51.462;6.892;2023-07-24T11:31:07;3.38;;;2.58;;
44328;SDS011;30039;51.462;6.892;2023-07-24T11:33:53;3.13;;;1.85;;
44328;SDS011;30039;51.462;6.892;2023-07-24T11:36:39;3.75;;;2.40;;
44328;SDS011;30039;51.462;6.892;2023-07-24T11:39:25;3.30;;;2.25;;
44328;SDS011;30039;51.462;6.892;2023-07-24T11:42:10;4.15;;;2.10;;
44328;SDS011;30039;51.462;6.892;2023-07-24T11:44:59;4.13;;;2.35;;
44328;SDS011;30039;51.462;6.892;2023-07-24T11:47:46;7.40;;;2.75;;
44328;SDS011;30039;51.462;6.892;2023-07-24T11:50:41;4.43;;;2.40;;
44328;SDS011;30039;51.462;6.892;2023-07-24T11:53:30;6.38;;;2.60;;
44328;SDS011;30039;51.462;6.892;2023-07-24T11:56:17;3.40;;;2.40;;
44328;SDS011;30039;51.462;6.892;2023-07-24T11:59:10;3.92;;;2.53;;
44328;SDS011;30039;51.462;6.892;2023-07-24T12:01:55;3.97;;;2.60;;
44328;SDS011;30039;51.462;6.892;2023-07-24T12:04:41;4.63;;;2.22;;
44328;SDS011;30039;51.462;6.892;2023-07-24T12:07:33;3.42;;;2.25;;
44328;SDS011;30039;51.462;6.892;2023-07-24T12:10:26;3.20;;;2.00;;
44328;SDS011;30039;51.462;6.892;2023-07-24T12:13:15;5.88;;;1.92;;
44328;SDS011;30039;51.462;6.892;2023-07-24T12:16:01;4.18;;;2.10;;
44328;SDS011;30039;51.462;6.892;2023-07-24T12:18:50;3.88;;;1.70;;
44328;SDS011;30039;51.462;6.892;2023-07-24T12:21:35;5.50;;;1.30;;
44328;SDS011;30039;51.462;6.892;2023-07-24T12:24:21;2.53;;;1.60;;
44328;SDS011;30039;51.462;6.892;2023-07-24T12:27:07;4.15;;;1.73;;
44328;SDS011;30039;51.462;6.892;2023-07-24T12:29:52;2.60;;;1.38;;
44328;SDS011;30039;51.462;6.892;2023-07-24T12:32:38;2.72;;;1.20;;
44328;SDS011;30039;51.462;6.892;2023-07-24T12:35:24;3.08;;;1.30;;
44328;SDS011;30039;51.462;6.892;2023-07-24T12:38:09;2.45;;;1.15;;
44328;SDS011;30039;51.462;6.892;2023-07-24T12:40:55;3.33;;;1.60;;
44328;SDS011;30039;51.462;6.892;2023-07-24T12:43:40;2.22;;;1.23;;
44328;SDS011;30039;51.462;6.892;2023-07-24T12:46:26;2.92;;;1.45;;
44328;SDS011;30039;51.462;6.892;2023-07-24T12:49:12;2.50;;;1.40;;
44328;SDS011;30039;51.462;6.892;2023-07-24T12:51:57;2.42;;;1.30;;
44328;SDS011;30039;51.462;6.892;2023-07-24T12:54:43;5.45;;;1.60;;
44328;SDS011;30039;51.462;6.892;2023-07-24T12:57:29;2.88;;;1.58;;
44328;SDS011;30039;51.462;6.892;2023-07-24T13:00:14;3.97;;;1.50;;
44328;SDS011;30039;51.462;6.892;2023-07-24T13:03:00;3.00;;;1.40;;
44328;SDS011;30039;51.462;6.892;2023-07-24T13:05:46;2.38;;;1.40;;
44328;SDS011;30039;51.462;6.892;2023-07-24T13:08:32;3.63;;;1.70;;
44328;SDS011;30039;51.462;6.892;2023-07-24T13:11:17;4.72;;;1.90;;
44328;SDS011;30039;51.462;6.892;2023-07-24T13:14:03;3.03;;;1.73;;
44328;SDS011;30039;51.462;6.892;2023-07-24T13:16:49;4.00;;;1.80;;
44328;SDS011;30039;51.462;6.892;2023-07-24T13:19:35;3.05;;;1.80;;
44328;SDS011;30039;51.462;6.892;2023-07-24T13:22:21;2.65;;;1.77;;
44328;SDS011;30039;51.462;6.892;2023-07-24T13:25:06;4.00;;;2.15;;
44328;SDS011;30039;51.462;6.892;2023-07-24T13:27:52;4.45;;;2.00;;
44328;SDS011;30039;51.462;6.892;2023-07-24T13:30:38;4.35;;;2.40;;
44328;SDS011;30039;51.462;6.892;2023-07-24T13:33:24;3.17;;;2.08;;
44328;SDS011;30039;51.462;6.892;2023-07-24T13:36:10;3.22;;;2.05;;
44328;SDS011;30039;51.462;6.892;2023-07-24T13:38:55;3.67;;;2.22;;
44328;SDS011;30039;51.462;6.892;2023-07-24T13:41:41;3.95;;;2.30;;
44328;SDS011;30039;51.462;6.892;2023-07-24T13:44:27;3.95;;;2.30;;
44328;SDS011;30039;51.462;6.892;2023-07-24T13:47:12;3.58;;;1.85;;
44328;SDS011;30039;51.462;6.892;2023-07-24T13:49:58;3.53;;;1.90;;
44328;SDS011;30039;51.462;6.892;2023-07-24T13:52:45;4.70;;;2.25;;
44328;SDS011;30039;51.462;6.892;2023-07-24T13:55:31;3.38;;;2.00;;
44328;SDS011;30039;51.462;6.892;2023-07-24T13:58:16;4.13;;;1.80;;
44328;SDS011;30039;51.462;6.892;2023-07-24T14:01:02;6.15;;;1.92;;
44328;SDS011;30039;51.462;6.892;2023-07-24T14:03:48;4.03;;;1.83;;
44328;SDS011;30039;51.462;6.892;2023-07-24T14:06:33;3.63;;;2.05;;
44328;SDS011;30039;51.462;6.892;2023-07-24T14:09:19;2.15;;;1.58;;
44328;SDS011;30039;51.462;6.892;2023-07-24T14:12:05;4.32;;;1.92;;
44328;SDS011;30039;51.462;6.892;2023-07-24T14:14:50;2.90;;;1.80;;
44328;SDS011;30039;51.462;6.892;2023-07-24T14:17:36;3.63;;;1.73;;
44328;SDS011;30039;51.462;6.892;2023-07-24T14:20:22;3.10;;;1.88;;
44328;SDS011;30039;51.462;6.892;2023-07-24T14:23:07;3.58;;;1.80;;
44328;SDS011;30039;51.462;6.892;2023-07-24T14:25:53;3.88;;;1.73;;
44328;SDS011;30039;51.462;6.892;2023-07-24T14:28:39;3.38;;;1.75;;
44328;SDS011;30039;51.462;6.892;2023-07-24T14:31:24;2.83;;;1.83;;
44328;SDS011;30039;51.462;6.892;2023-07-24T14:34:10;2.83;;;1.70;;
44328;SDS011;30039;51.462;6.892;2023-07-24T14:36:58;2.83;;;1.52;;
44328;SDS011;30039;51.462;6.892;2023-07-24T14:39:44;3.75;;;1.45;;
44328;SDS011;30039;51.462;6.892;2023-07-24T14:42:30;2.00;;;1.70;;
44328;SDS011;30039;51.462;6.892;2023-07-24T14:45:15;4.22;;;1.83;;
44328;SDS011;30039;51.462;6.892;2023-07-24T14:48:01;2.63;;;1.85;;
44328;SDS011;30039;51.462;6.892;2023-07-24T14:50:47;4.20;;;1.95;;
44328;SDS011;30039;51.462;6.892;2023-07-24T14:53:33;1.77;;;1.20;;
44328;SDS011;30039;51.462;6.892;2023-07-24T14:56:19;2.60;;;1.40;;
44328;SDS011;30039;51.462;6.892;2023-07-24T14:59:05;2.90;;;1.85;;
44328;SDS011;30039;51.462;6.892;2023-07-24T15:01:50;2.15;;;1.50;;
44328;SDS011;30039;51.462;6.892;2023-07-24T15:04:36;3.83;;;1.90;;
44328;SDS011;30039;51.462;6.892;2023-07-24T15:07:21;2.53;;;1.70;;
44328;SDS011;30039;51.462;6.892;2023-07-24T15:10:07;2.28;;;1.50;;
44328;SDS011;30039;51.462;6.892;2023-07-24T15:12:53;2.10;;;1.40;;
44328;SDS011;30039;51.462;6.892;2023-07-24T15:15:39;1.65;;;1.40;;
44328;SDS011;30039;51.462;6.892;2023-07-24T15:18:24;4.28;;;1.95;;
44328;SDS011;30039;51.462;6.892;2023-07-24T15:21:10;3.60;;;1.85;;
44328;SDS011;30039;51.462;6.892;2023-07-24T15:23:56;3.00;;;1.90;;
44328;SDS011;30039;51.462;6.892;2023-07-24T15:26:41;4.65;;;2.40;;
44328;SDS011;30039;51.462;6.892;2023-07-24T15:29:27;3.83;;;1.95;;
44328;SDS011;30039;51.462;6.892;2023-07-24T15:32:13;3.50;;;2.08;;
44328;SDS011;30039;51.462;6.892;2023-07-24T15:34:58;3.60;;;2.05;;
44328;SDS011;30039;51.462;6.892;2023-07-24T15:37:45;3.33;;;2.00;;
44328;SDS011;30039;51.462;6.892;2023-07-24T15:40:31;5.55;;;2.45;;
44328;SDS011;30039;51.462;6.892;2023-07-24T15:43:18;2.83;;;2.00;;
44328;SDS011;30039;51.462;6.892;2023-07-24T15:46:04;3.30;;;2.30;;
44328;SDS011;30039;51.462;6.892;2023-07-24T15:48:49;4.18;;;2.15;;
44328;SDS011;30039;51.462;6.892;2023-07-24T15:51:35;4.07;;;2.28;;
44328;SDS011;30039;51.462;6.892;2023-07-24T15:54:20;3.65;;;2.10;;
44328;SDS011;30039;51.462;6.892;2023-07-24T15:57:06;3.60;;;2.20;;
44328;SDS011;30039;51.462;6.892;2023-07-24T15:59:52;3.83;;;2.40;;
44328;SDS011;30039;51.462;6.892;2023-07-24T16:02:38;4.43;;;2.95;;
44328;SDS011;30039;51.462;6.892;2023-07-24T16:05:23;4.88;;;2.80;;
44328;SDS011;30039;51.462;6.892;2023-07-24T16:08:09;4.35;;;3.10;;
44328;SDS011;30039;51.462;6.892;2023-07-24T16:10:55;4.30;;;3.05;;
44328;SDS011;30039;51.462;6.892;2023-07-24T16:13:41;4.50;;;3.10;;
44328;SDS011;30039;51.462;6.892;2023-07-24T16:16:27;4.82;;;3.30;;
44328;SDS011;30039;51.462;6.892;2023-07-24T16:19:17;5.30;;;3.28;;
44328;SDS011;30039;51.462;6.892;2023-07-24T16:22:03;7.95;;;3.70;;
44328;SDS011;30039;51.462;6.892;2023-07-24T16:24:48;4.18;;;3.15;;
44328;SDS011;30039;51.462;6.892;2023-07-24T16:27:34;6.82;;;3.60;;
44328;SDS011;30039;51.462;6.892;2023-07-24T16:30:20;5.05;;;3.50;;
44328;SDS011;30039;51.462;6.892;2023-07-24T16:33:06;6.70;;;3.83;;
44328;SDS011;30039;51.462;6.892;2023-07-24T16:35:52;5.45;;;3.58;;
44328;SDS011;30039;51.462;6.892;2023-07-24T16:38:37;6.55;;;3.45;;
44328;SDS011;30039;51.462;6.892;2023-07-24T16:41:23;5.50;;;3.53;;
44328;SDS011;30039;51.462;6.892;2023-07-24T16:44:09;5.60;;;3.45;;
44328;SDS011;30039;51.462;6.892;2023-07-24T16:46:55;6.47;;;3.25;;
44328;SDS011;30039;51.462;6.892;2023-07-24T16:49:41;4.53;;;3.28;;
44328;SDS011;30039;51.462;6.892;2023-07-24T16:52:27;6.47;;;3.28;;
44328;SDS011;30039;51.462;6.892;2023-07-24T16:55:12;5.20;;;3.13;;